Terminal Aerodrome Forecast
Issued by NWS

Home | Current Version | Previous Version | Text Only | Print | Product List | Glossary On
Versions: 1 2 3 4 5 6 7 8 9 10 11 12 13 14 15 16 17 18 19 20 21 22 23 24 25 26 27 28 29 30 31 32 33 34 35
000
FTUS43 KGLD 051720
TAFMCK
TAF
KMCK 051720Z 0518/0618 11010KT 1SM BR OVC002
      TEMPO 0518/0519 5SM -RA BR BKN007
     FM052100 13013G19KT 5SM -RA BR BKN030
     FM060000 14017G24KT 5SM -SHRA BR BKN030
     FM060200 14015G22KT 6SM -SHRA OVC010
     FM060400 14014G21KT 2SM -SHRA BR OVC004
     FM060800 14012KT 2SM BR VCSH OVC004
     FM061500 16013G19KT 2SM BR OVC004=

USA.gov is the U.S. government's official web portal to all federal, state and local government web resources and services.